createdAt,value
2017-05-14T00:01:55.816Z,19.60
2017-05-14T00:04:24.100Z,19.60
2017-05-14T00:06:52.443Z,19.60
2017-05-14T00:09:21.076Z,19.70
2017-05-14T00:11:49.369Z,19.60
2017-05-14T00:14:17.691Z,19.60
2017-05-14T00:16:46.259Z,19.60
2017-05-14T00:19:14.767Z,19.70
2017-05-14T00:21:43.253Z,19.70
2017-05-14T00:24:11.949Z,19.70
2017-05-14T00:26:40.243Z,19.60
2017-05-14T00:29:08.546Z,19.60
2017-05-14T00:31:37.169Z,19.60
2017-05-14T00:34:05.482Z,19.60
2017-05-14T00:36:33.774Z,19.60
2017-05-14T00:39:02.410Z,19.60
2017-05-14T00:41:30.705Z,19.60
2017-05-14T00:43:59.042Z,19.60
2017-05-14T00:46:27.561Z,19.60
2017-05-14T00:48:55.851Z,19.60
2017-05-14T00:51:24.412Z,19.60
2017-05-14T00:53:53.097Z,19.60
2017-05-14T00:56:21.555Z,19.60
2017-05-14T00:58:49.863Z,19.60
2017-05-14T01:01:18.534Z,19.60
2017-05-14T01:03:46.816Z,19.60
2017-05-14T01:06:15.122Z,19.60
2017-05-14T01:08:43.768Z,19.60
2017-05-14T01:11:12.130Z,19.60
2017-05-14T01:13:40.617Z,19.60
2017-05-14T01:16:09.311Z,19.50
2017-05-14T01:18:37.609Z,19.50
2017-05-14T01:21:06.082Z,19.50
2017-05-14T01:23:34.702Z,19.60
2017-05-14T01:26:03.139Z,19.60
2017-05-14T01:28:31.438Z,19.50
2017-05-14T01:31:00.094Z,19.50
2017-05-14T01:33:28.466Z,19.50
2017-05-14T01:35:56.744Z,19.50
2017-05-14T01:38:25.335Z,19.60
2017-05-14T01:40:53.819Z,19.60
2017-05-14T01:43:22.299Z,19.50
2017-05-14T01:45:50.983Z,19.50
2017-05-14T01:48:19.345Z,19.50
2017-05-14T01:50:47.942Z,19.50
2017-05-14T01:53:16.632Z,19.50
2017-05-14T01:55:44.992Z,19.50
2017-05-14T01:58:13.391Z,19.50
2017-05-14T02:00:41.995Z,19.50
2017-05-14T02:03:10.352Z,19.50
2017-05-14T02:05:38.658Z,19.50
2017-05-14T02:08:07.308Z,19.50
2017-05-14T02:10:35.575Z,19.50
2017-05-14T02:13:03.937Z,19.50
2017-05-14T02:15:32.478Z,19.50
2017-05-14T02:18:00.824Z,19.50
2017-05-14T02:20:29.106Z,19.50
2017-05-14T02:22:57.976Z,19.50
2017-05-14T02:25:26.252Z,19.50
2017-05-14T02:27:54.532Z,19.50
2017-05-14T02:30:23.101Z,19.50
2017-05-14T02:32:51.381Z,19.40
2017-05-14T02:35:19.662Z,19.50
2017-05-14T02:37:48.258Z,19.50
2017-05-14T02:40:16.745Z,19.50
2017-05-14T02:42:45.020Z,19.50
2017-05-14T02:45:13.548Z,19.50
2017-05-14T02:47:41.974Z,19.40
2017-05-14T02:50:10.284Z,19.50
2017-05-14T02:52:38.938Z,19.40
2017-05-14T02:55:07.239Z,19.50
2017-05-14T02:57:35.533Z,19.40
2017-05-14T03:00:04.144Z,19.40
2017-05-14T03:02:32.437Z,19.40
2017-05-14T03:05:00.751Z,19.50
2017-05-14T03:07:29.414Z,19.40
2017-05-14T03:09:57.894Z,19.40
2017-05-14T03:12:26.189Z,19.40
2017-05-14T03:14:54.756Z,19.40
2017-05-14T03:17:23.045Z,19.40
2017-05-14T03:19:51.332Z,19.40
2017-05-14T03:22:19.848Z,19.40
2017-05-14T03:24:48.128Z,19.40
2017-05-14T03:27:16.417Z,19.40
2017-05-14T03:29:45.078Z,19.40
2017-05-14T03:32:14.092Z,19.40
2017-05-14T03:34:42.569Z,19.40
2017-05-14T03:37:11.175Z,19.40
2017-05-14T03:39:39.660Z,19.40
2017-05-14T03:42:07.937Z,19.40
2017-05-14T03:44:36.739Z,19.40
2017-05-14T03:47:05.118Z,19.40
2017-05-14T03:49:33.472Z,19.40
2017-05-14T03:52:02.154Z,19.40
2017-05-14T03:54:30.534Z,19.40
2017-05-14T03:56:58.807Z,19.40
2017-05-14T03:59:27.510Z,19.40
2017-05-14T04:01:55.799Z,19.40
2017-05-14T04:04:24.269Z,19.40
2017-05-14T04:06:52.841Z,19.40
2017-05-14T04:09:21.116Z,19.40
2017-05-14T04:11:49.509Z,19.40
2017-05-14T04:14:18.197Z,19.40
2017-05-14T04:16:46.672Z,19.40
2017-05-14T04:19:14.956Z,19.40
2017-05-14T04:21:43.464Z,19.40
2017-05-14T04:24:11.752Z,19.40
2017-05-14T04:26:40.036Z,19.30
2017-05-14T04:29:08.667Z,19.30
2017-05-14T04:31:37.152Z,19.30
2017-05-14T04:34:05.495Z,19.40
2017-05-14T04:36:34.011Z,19.40
2017-05-14T04:39:02.385Z,19.30
2017-05-14T04:41:30.662Z,19.30
2017-05-14T04:43:59.339Z,19.30
2017-05-14T04:46:27.875Z,19.30
2017-05-14T04:48:56.149Z,19.30
2017-05-14T04:51:24.791Z,19.30
2017-05-14T04:53:53.271Z,19.30
2017-05-14T04:56:21.560Z,19.30
2017-05-14T04:58:50.124Z,19.30
2017-05-14T05:01:18.426Z,19.30
2017-05-14T05:03:46.888Z,19.30
2017-05-14T05:06:15.498Z,19.30
2017-05-14T05:08:43.858Z,19.30
2017-05-14T05:11:12.330Z,19.30
2017-05-14T05:13:41.019Z,19.30
2017-05-14T05:16:09.512Z,19.30
2017-05-14T05:18:37.863Z,19.30
2017-05-14T05:21:06.465Z,19.30
2017-05-14T05:23:34.751Z,19.30
2017-05-14T05:26:03.215Z,19.30
2017-05-14T05:28:31.900Z,19.30
2017-05-14T05:31:00.190Z,19.30
2017-05-14T05:33:28.471Z,19.30
2017-05-14T05:35:57.152Z,19.30
2017-05-14T05:38:25.442Z,19.30
2017-05-14T05:40:53.772Z,19.30
2017-05-14T05:43:22.368Z,19.30
2017-05-14T05:45:50.666Z,19.30
2017-05-14T05:48:18.944Z,19.30
2017-05-14T05:50:47.528Z,19.30
2017-05-14T05:53:15.810Z,19.30
2017-05-14T05:55:44.155Z,19.30
2017-05-14T05:58:12.848Z,19.30
2017-05-14T06:00:41.121Z,19.30
2017-05-14T06:03:09.616Z,19.30
2017-05-14T06:05:38.305Z,19.30
2017-05-14T06:08:06.646Z,19.30
2017-05-14T06:10:35.254Z,19.30
2017-05-14T06:13:03.759Z,19.30
2017-05-14T06:15:32.219Z,19.30
2017-05-14T06:18:00.513Z,19.30
2017-05-14T06:20:29.084Z,19.30
2017-05-14T06:22:57.365Z,19.30
2017-05-14T06:25:25.752Z,19.30
2017-05-14T06:27:54.417Z,19.30
2017-05-14T06:30:22.706Z,19.40
2017-05-14T06:32:51.064Z,19.30
2017-05-14T06:35:19.628Z,19.30
2017-05-14T06:37:47.931Z,19.30
2017-05-14T06:40:16.297Z,19.30
2017-05-14T06:42:44.937Z,19.40
2017-05-14T06:45:13.377Z,19.40
2017-05-14T06:47:41.677Z,19.40
2017-05-14T06:50:10.351Z,19.30
2017-05-14T06:52:38.642Z,19.40
2017-05-14T06:55:06.976Z,19.30
2017-05-14T06:57:35.575Z,19.40
2017-05-14T07:00:03.872Z,19.40
2017-05-14T07:02:32.207Z,19.40
2017-05-14T07:05:00.815Z,19.40
2017-05-14T07:07:29.100Z,19.40
2017-05-14T07:09:57.380Z,19.40
2017-05-14T07:12:25.997Z,19.40
2017-05-14T07:14:55.141Z,19.30
2017-05-14T07:17:23.436Z,19.40
2017-05-14T07:19:52.083Z,19.40
2017-05-14T07:22:20.356Z,19.40
2017-05-14T07:24:48.687Z,19.40
2017-05-14T07:27:17.353Z,19.40
2017-05-14T07:29:45.707Z,19.40
2017-05-14T07:32:14.002Z,19.40
2017-05-14T07:34:42.386Z,19.40
2017-05-14T07:37:10.676Z,19.40
2017-05-14T07:39:39.355Z,19.50
2017-05-14T07:42:07.727Z,19.40
2017-05-14T07:44:36.112Z,19.50
2017-05-14T07:47:04.798Z,19.50
2017-05-14T07:49:33.110Z,19.50
2017-05-14T07:52:01.420Z,19.50
2017-05-14T07:54:30.041Z,19.50
2017-05-14T07:56:58.331Z,19.50
2017-05-14T07:59:26.619Z,19.50
2017-05-14T08:01:55.264Z,19.50
2017-05-14T08:04:23.625Z,19.60
2017-05-14T08:06:51.911Z,19.60
2017-05-14T08:09:20.516Z,19.60
2017-05-14T08:11:48.811Z,19.60
2017-05-14T08:14:17.169Z,19.60
2017-05-14T08:16:45.767Z,19.60
2017-05-14T08:19:14.066Z,19.60
2017-05-14T08:21:42.575Z,19.60
2017-05-14T08:24:11.188Z,19.60
2017-05-14T08:26:39.476Z,19.60
2017-05-14T08:29:07.765Z,19.60
2017-05-14T08:31:36.417Z,19.60
2017-05-14T08:34:04.742Z,19.60
2017-05-14T08:36:33.063Z,19.60
2017-05-14T08:39:01.581Z,19.60
2017-05-14T08:41:30.628Z,19.60
2017-05-14T08:43:58.925Z,19.60
2017-05-14T08:46:27.490Z,19.60
2017-05-14T08:48:55.778Z,19.60
2017-05-14T08:51:24.107Z,19.60
2017-05-14T08:53:52.738Z,19.60
2017-05-14T08:56:21.239Z,19.60
2017-05-14T08:58:49.595Z,19.60
2017-05-14T09:01:18.191Z,19.60
2017-05-14T09:03:46.499Z,19.60
2017-05-14T09:06:14.819Z,19.60
2017-05-14T09:08:43.429Z,19.60
2017-05-14T09:11:11.903Z,19.60
2017-05-14T09:13:40.198Z,19.70
2017-05-14T09:16:09.694Z,19.70
2017-05-14T09:18:38.173Z,19.70
2017-05-14T09:21:06.481Z,19.70
2017-05-14T09:23:35.136Z,19.70
2017-05-14T09:26:03.428Z,19.70
2017-05-14T09:28:31.724Z,19.70
2017-05-14T09:31:00.370Z,19.70
2017-05-14T09:33:28.851Z,19.60
2017-05-14T09:35:57.141Z,19.20
2017-05-14T09:38:25.805Z,19.20
2017-05-14T09:40:54.097Z,19.30
2017-05-14T09:43:22.385Z,19.40
2017-05-14T09:45:51.248Z,19.40
2017-05-14T09:48:19.534Z,19.50
2017-05-14T09:50:47.831Z,19.50
2017-05-14T09:53:16.491Z,19.60
2017-05-14T09:55:44.785Z,19.60
2017-05-14T09:58:13.096Z,19.60
2017-05-14T10:00:41.722Z,19.50
2017-05-14T10:03:10.009Z,19.50
2017-05-14T10:05:38.327Z,19.50
2017-05-14T10:08:06.940Z,19.60
2017-05-14T10:10:35.238Z,19.60
2017-05-14T10:13:03.534Z,19.60
2017-05-14T10:15:32.215Z,19.60
2017-05-14T10:18:01.083Z,19.60
2017-05-14T10:20:29.374Z,19.60
2017-05-14T10:22:58.253Z,19.60
2017-05-14T10:25:26.570Z,19.60
2017-05-14T10:27:54.854Z,19.60
2017-05-14T10:30:23.497Z,19.60
2017-05-14T10:32:51.935Z,19.70
2017-05-14T10:35:20.272Z,19.60
2017-05-14T10:37:48.950Z,19.60
2017-05-14T10:40:17.242Z,19.70
2017-05-14T10:42:45.698Z,19.70
2017-05-14T10:45:14.401Z,19.70
2017-05-14T10:47:42.719Z,19.70
2017-05-14T10:50:11.036Z,19.70
2017-05-14T10:52:39.830Z,19.70
2017-05-14T10:55:08.311Z,19.70
2017-05-14T10:57:36.610Z,19.70
2017-05-14T11:00:05.266Z,19.70
2017-05-14T11:02:33.567Z,19.70
2017-05-14T11:05:01.882Z,19.70
2017-05-14T11:07:30.518Z,19.70
2017-05-14T11:09:58.812Z,19.70
2017-05-14T11:12:27.135Z,19.70
2017-05-14T11:14:55.755Z,19.70
2017-05-14T11:17:24.071Z,19.70
2017-05-14T11:19:52.377Z,19.70
2017-05-14T11:22:20.996Z,19.70
2017-05-14T11:24:49.293Z,19.70
2017-05-14T11:27:17.610Z,19.70
2017-05-14T11:29:46.205Z,19.70
2017-05-14T11:32:14.702Z,19.70
2017-05-14T11:34:43.006Z,19.70
2017-05-14T11:37:11.657Z,19.70
2017-05-14T11:39:39.984Z,19.70
2017-05-14T11:42:09.131Z,19.70
2017-05-14T11:44:37.952Z,19.70
2017-05-14T11:47:06.264Z,19.70
2017-05-14T11:49:34.678Z,19.70
2017-05-14T11:52:03.577Z,19.70
2017-05-14T11:54:31.881Z,19.80
2017-05-14T11:57:00.217Z,19.80
2017-05-14T11:59:31.656Z,19.80
2017-05-14T12:02:00.268Z,19.80
2017-05-14T12:04:28.562Z,19.80
2017-05-14T12:06:57.164Z,19.80
2017-05-14T12:09:26.320Z,19.80
2017-05-14T12:11:54.640Z,19.80
2017-05-14T12:14:23.477Z,19.80
2017-05-14T12:16:51.797Z,19.90
2017-05-14T12:19:20.142Z,19.90
2017-05-14T12:21:48.805Z,19.80
2017-05-14T12:24:17.135Z,19.80
2017-05-14T12:26:46.173Z,19.80
2017-05-14T12:29:14.794Z,19.80
2017-05-14T12:31:43.302Z,19.80
2017-05-14T12:34:11.661Z,19.80
2017-05-14T12:36:40.250Z,19.90
2017-05-14T12:39:08.590Z,19.90
2017-05-14T12:41:36.914Z,19.80
2017-05-14T12:44:06.223Z,19.90
2017-05-14T12:46:34.515Z,19.80
2017-05-14T12:49:02.810Z,19.80
2017-05-14T12:51:31.396Z,19.90
2017-05-14T12:53:59.698Z,19.90
2017-05-14T12:56:27.998Z,19.90
2017-05-14T12:58:57.470Z,19.90
2017-05-14T13:01:25.826Z,19.90
2017-05-14T13:03:54.130Z,19.90
2017-05-14T13:06:22.738Z,19.90
2017-05-14T13:08:51.773Z,19.90
2017-05-14T13:11:20.087Z,19.90
2017-05-14T13:13:48.674Z,19.90
2017-05-14T13:16:16.993Z,19.90
2017-05-14T13:18:45.293Z,19.90
2017-05-14T13:21:13.907Z,19.90
2017-05-14T13:23:42.200Z,19.90
2017-05-14T13:26:10.508Z,19.90
2017-05-14T13:28:39.135Z,19.90
2017-05-14T13:31:07.446Z,19.90
2017-05-14T13:33:35.748Z,19.90
2017-05-14T13:36:04.348Z,19.90
2017-05-14T13:38:32.632Z,19.90
2017-05-14T13:41:00.919Z,19.90
2017-05-14T13:43:29.623Z,20.00
2017-05-14T13:45:57.911Z,20.00
2017-05-14T13:48:26.213Z,20.00
2017-05-14T13:50:54.852Z,20.00
2017-05-14T13:53:23.148Z,20.00
2017-05-14T13:55:51.434Z,20.00
2017-05-14T13:58:20.107Z,20.00
2017-05-14T14:00:48.571Z,20.00
2017-05-14T14:03:16.874Z,20.00
2017-05-14T14:05:45.498Z,20.00
2017-05-14T14:08:13.810Z,20.00
2017-05-14T14:10:42.106Z,20.00
2017-05-14T14:13:10.778Z,20.00
2017-05-14T14:15:39.087Z,20.00
2017-05-14T14:18:07.528Z,20.00
2017-05-14T14:20:36.071Z,20.00
2017-05-14T14:23:04.365Z,20.00
2017-05-14T14:25:32.778Z,20.00
2017-05-14T14:28:01.330Z,20.10
2017-05-14T14:30:29.649Z,20.10
2017-05-14T14:32:58.674Z,20.00
2017-05-14T14:35:27.301Z,20.10
2017-05-14T14:37:55.611Z,20.10
2017-05-14T14:40:23.938Z,20.10
2017-05-14T14:42:52.598Z,20.10
2017-05-14T14:45:20.891Z,20.10
2017-05-14T14:47:49.310Z,20.10
2017-05-14T14:50:17.983Z,20.10
2017-05-14T14:52:46.273Z,20.10
2017-05-14T14:55:14.612Z,20.10
2017-05-14T14:57:43.217Z,20.10
2017-05-14T15:00:11.511Z,20.10
2017-05-14T15:02:39.829Z,20.10
2017-05-14T15:05:08.471Z,20.10
2017-05-14T15:07:36.822Z,20.10
2017-05-14T15:10:05.210Z,20.10
2017-05-14T15:12:33.735Z,20.10
2017-05-14T15:15:02.016Z,20.10
2017-05-14T15:17:30.481Z,20.10
2017-05-14T15:19:59.149Z,20.10
2017-05-14T15:22:27.450Z,20.10
2017-05-14T15:24:55.744Z,20.10
2017-05-14T15:27:24.394Z,20.10
2017-05-14T15:29:52.681Z,20.10
2017-05-14T15:32:20.971Z,20.10
2017-05-14T15:34:49.615Z,20.10
2017-05-14T15:37:17.987Z,20.10
2017-05-14T15:39:47.090Z,20.10
2017-05-14T15:42:15.731Z,20.10
2017-05-14T15:44:44.048Z,20.10
2017-05-14T15:47:12.348Z,20.10
2017-05-14T15:49:41.722Z,20.10
2017-05-14T15:52:10.219Z,20.10
2017-05-14T15:54:38.708Z,20.10
2017-05-14T15:57:07.369Z,20.10
2017-05-14T15:59:35.670Z,20.10
2017-05-14T16:02:03.969Z,20.10
2017-05-14T16:04:32.634Z,20.10
2017-05-14T16:07:00.915Z,20.10
2017-05-14T16:09:29.218Z,20.10
2017-05-14T16:11:57.850Z,20.10
2017-05-14T16:14:26.162Z,20.20
2017-05-14T16:16:54.467Z,20.20
2017-05-14T16:19:23.045Z,20.20
2017-05-14T16:21:51.353Z,20.10
2017-05-14T16:24:19.651Z,20.20
2017-05-14T16:26:48.327Z,20.20
2017-05-14T16:29:16.707Z,20.20
2017-05-14T16:31:45.095Z,20.20
2017-05-14T16:34:13.714Z,20.20
2017-05-14T16:36:42.015Z,20.20
2017-05-14T16:39:10.351Z,20.20
2017-05-14T16:41:38.996Z,20.20
2017-05-14T16:44:07.367Z,20.20
2017-05-14T16:46:35.651Z,20.20
2017-05-14T16:49:04.251Z,20.20
2017-05-14T16:51:32.727Z,20.20
2017-05-14T16:54:01.041Z,20.20
2017-05-14T16:56:29.700Z,20.20
2017-05-14T16:58:57.986Z,20.20
2017-05-14T17:01:26.294Z,20.20
2017-05-14T17:03:54.914Z,20.20
2017-05-14T17:06:23.208Z,20.20
2017-05-14T17:08:51.502Z,20.20
2017-05-14T17:11:20.074Z,20.20
2017-05-14T17:13:48.452Z,20.20
2017-05-14T17:16:16.908Z,20.20
2017-05-14T17:18:45.471Z,20.20
2017-05-14T17:21:13.785Z,20.20
2017-05-14T17:23:42.169Z,20.20
2017-05-14T17:26:10.785Z,20.20
2017-05-14T17:28:39.821Z,20.10
2017-05-14T17:31:08.122Z,20.20
2017-05-14T17:33:36.703Z,20.20
2017-05-14T17:36:05.147Z,20.20
2017-05-14T17:38:33.434Z,20.20
2017-05-14T17:41:01.966Z,20.20
2017-05-14T17:43:30.279Z,20.20
2017-05-14T17:45:58.745Z,20.30
2017-05-14T17:48:27.374Z,20.30
2017-05-14T17:50:55.664Z,20.30
2017-05-14T17:53:23.964Z,20.30
2017-05-14T17:55:52.606Z,20.30
2017-05-14T17:58:20.917Z,20.30
2017-05-14T18:00:49.391Z,20.30
2017-05-14T18:03:17.909Z,20.30
2017-05-14T18:05:46.214Z,20.30
2017-05-14T18:08:14.614Z,20.20
2017-05-14T18:10:43.135Z,20.20
2017-05-14T18:13:11.430Z,20.30
2017-05-14T18:15:39.749Z,20.20
2017-05-14T18:18:08.325Z,20.20
2017-05-14T18:20:36.734Z,20.20
2017-05-14T18:23:05.790Z,20.20
2017-05-14T18:25:34.389Z,20.20
2017-05-14T18:28:02.693Z,20.20
2017-05-14T18:30:30.996Z,20.20
2017-05-14T18:32:59.624Z,20.20
2017-05-14T18:35:27.916Z,20.20
2017-05-14T18:37:56.235Z,20.20
2017-05-14T18:40:24.850Z,20.20
2017-05-14T18:42:53.728Z,20.20
2017-05-14T18:45:22.029Z,20.20
2017-05-14T18:47:50.709Z,20.20
2017-05-14T18:50:19.030Z,20.20
2017-05-14T18:52:47.325Z,20.20
2017-05-14T18:55:15.999Z,20.20
2017-05-14T18:57:44.333Z,20.20
2017-05-14T19:00:13.534Z,20.10
2017-05-14T19:02:42.214Z,20.20
2017-05-14T19:05:10.517Z,20.20
2017-05-14T19:07:38.814Z,20.20
2017-05-14T19:10:07.447Z,20.20
2017-05-14T19:12:35.745Z,20.20
2017-05-14T19:15:04.087Z,20.20
2017-05-14T19:17:32.696Z,20.10
2017-05-14T19:20:01.018Z,20.20
2017-05-14T19:22:29.335Z,20.10
2017-05-14T19:24:57.929Z,20.20
2017-05-14T19:27:26.225Z,20.10
2017-05-14T19:29:54.546Z,20.20
2017-05-14T19:32:23.161Z,20.10
2017-05-14T19:34:51.658Z,20.10
2017-05-14T19:37:19.961Z,20.10
2017-05-14T19:39:48.500Z,20.10
2017-05-14T19:42:16.800Z,20.10
2017-05-14T19:44:45.913Z,20.10
2017-05-14T19:47:15.246Z,20.10
2017-05-14T19:49:43.555Z,20.10
2017-05-14T19:52:11.912Z,20.10
2017-05-14T19:54:40.519Z,20.10
2017-05-14T19:57:08.815Z,20.10
2017-05-14T19:59:37.102Z,20.10
2017-05-14T20:02:05.759Z,20.10
2017-05-14T20:04:34.219Z,20.10
2017-05-14T20:07:02.509Z,20.10
2017-05-14T20:09:31.185Z,20.10
2017-05-14T20:11:59.600Z,20.10
2017-05-14T20:14:28.626Z,20.10
2017-05-14T20:16:57.238Z,20.10
2017-05-14T20:19:25.596Z,20.10
2017-05-14T20:21:54.025Z,20.10
2017-05-14T20:24:22.698Z,20.10
2017-05-14T20:26:50.999Z,20.10
2017-05-14T20:29:19.286Z,20.10
2017-05-14T20:31:47.822Z,20.10
2017-05-14T20:34:16.203Z,20.10
2017-05-14T20:36:44.504Z,20.10
2017-05-14T20:39:13.199Z,20.10
2017-05-14T20:41:41.499Z,20.10
2017-05-14T20:44:09.824Z,20.10
2017-05-14T20:46:38.598Z,20.10
2017-05-14T20:49:06.890Z,20.10
2017-05-14T20:51:35.186Z,20.00
2017-05-14T20:54:03.849Z,20.10
2017-05-14T20:56:32.158Z,20.00
2017-05-14T20:59:00.612Z,20.00
2017-05-14T21:01:29.290Z,20.00
2017-05-14T21:03:57.585Z,20.00
2017-05-14T21:06:25.890Z,20.00
2017-05-14T21:08:54.515Z,20.00
2017-05-14T21:11:22.864Z,20.00
2017-05-14T21:13:51.285Z,20.00
2017-05-14T21:16:19.841Z,20.00
2017-05-14T21:18:48.129Z,20.00
2017-05-14T21:21:16.414Z,20.00
2017-05-14T21:23:44.994Z,20.00
2017-05-14T21:26:13.298Z,20.00
2017-05-14T21:28:41.584Z,20.00
2017-05-14T21:31:10.241Z,20.00
2017-05-14T21:33:38.530Z,20.00
2017-05-14T21:36:06.834Z,20.00
2017-05-14T21:38:35.471Z,20.00
2017-05-14T21:41:03.769Z,20.00
2017-05-14T21:43:32.056Z,20.00
2017-05-14T21:46:00.708Z,20.00
2017-05-14T21:48:28.995Z,20.00
2017-05-14T21:50:57.297Z,20.00
2017-05-14T21:53:25.867Z,20.00
2017-05-14T21:55:54.151Z,20.00
2017-05-14T21:58:23.320Z,20.00
2017-05-14T22:00:52.009Z,20.00
2017-05-14T22:03:20.413Z,20.00
2017-05-14T22:05:49.443Z,19.90
2017-05-14T22:08:18.273Z,20.00
2017-05-14T22:10:46.559Z,19.90
2017-05-14T22:13:14.840Z,19.90
2017-05-14T22:15:43.356Z,19.90
2017-05-14T22:18:11.768Z,19.90
2017-05-14T22:20:40.049Z,19.90
2017-05-14T22:23:08.753Z,19.90
2017-05-14T22:25:37.057Z,19.90
2017-05-14T22:28:05.388Z,19.90
2017-05-14T22:30:33.971Z,19.90
2017-05-14T22:33:02.459Z,19.90
2017-05-14T22:35:30.749Z,19.90
2017-05-14T22:37:59.414Z,19.90
2017-05-14T22:40:27.711Z,19.90
2017-05-14T22:42:56.182Z,19.90
2017-05-14T22:45:24.763Z,19.90
2017-05-14T22:47:53.046Z,19.90
2017-05-14T22:50:21.442Z,19.90
2017-05-14T22:52:49.940Z,19.90
2017-05-14T22:55:18.240Z,19.90
2017-05-14T22:57:46.533Z,19.90
2017-05-14T23:00:15.240Z,19.90
2017-05-14T23:02:43.623Z,19.90
2017-05-14T23:05:11.911Z,19.90
2017-05-14T23:07:40.570Z,19.80
2017-05-14T23:10:08.929Z,19.90
2017-05-14T23:12:37.207Z,19.90
2017-05-14T23:15:05.732Z,19.90
2017-05-14T23:17:34.032Z,19.80
2017-05-14T23:20:02.319Z,19.90
2017-05-14T23:22:30.893Z,19.80
2017-05-14T23:24:59.193Z,19.80
2017-05-14T23:27:27.479Z,19.80
2017-05-14T23:29:56.079Z,19.80
2017-05-14T23:32:24.374Z,19.80
2017-05-14T23:34:52.667Z,19.80
2017-05-14T23:37:21.169Z,19.80
2017-05-14T23:39:49.443Z,19.80
2017-05-14T23:42:17.720Z,19.80
2017-05-14T23:44:46.370Z,19.80
2017-05-14T23:47:14.881Z,19.80
2017-05-14T23:49:43.160Z,19.80
2017-05-14T23:52:11.790Z,19.80
2017-05-14T23:54:40.073Z,19.80
2017-05-14T23:57:08.545Z,19.80
2017-05-14T23:59:37.141Z,19.80
